sensor_id;sensor_type;location;lat;lon;timestamp;P1;durP1;ratioP1;P2;durP2;ratioP2
38427;SDS011;24211;49.980;19.776;2023-03-29T00:00:03;19.63;;;7.15;;
38427;SDS011;24211;49.980;19.776;2023-03-29T00:03:02;19.00;;;7.15;;
38427;SDS011;24211;49.980;19.776;2023-03-29T00:05:30;19.30;;;7.13;;
38427;SDS011;24211;49.980;19.776;2023-03-29T00:08:01;17.70;;;7.20;;
38427;SDS011;24211;49.980;19.776;2023-03-29T00:10:30;20.60;;;7.30;;
38427;SDS011;24211;49.980;19.776;2023-03-29T00:13:00;20.50;;;7.00;;
38427;SDS011;24211;49.980;19.776;2023-03-29T00:15:28;17.52;;;6.93;;
38427;SDS011;24211;49.980;19.776;2023-03-29T00:17:55;15.32;;;6.82;;
38427;SDS011;24211;49.980;19.776;2023-03-29T00:20:23;18.92;;;6.82;;
38427;SDS011;24211;49.980;19.776;2023-03-29T00:22:51;18.77;;;6.75;;
38427;SDS011;24211;49.980;19.776;2023-03-29T00:25:18;18.52;;;7.38;;
38427;SDS011;24211;49.980;19.776;2023-03-29T00:27:46;16.58;;;6.70;;
38427;SDS011;24211;49.980;19.776;2023-03-29T00:30:14;19.05;;;7.45;;
38427;SDS011;24211;49.980;19.776;2023-03-29T00:32:42;21.25;;;6.78;;
38427;SDS011;24211;49.980;19.776;2023-03-29T00:35:10;19.63;;;6.60;;
38427;SDS011;24211;49.980;19.776;2023-03-29T00:37:37;20.35;;;7.15;;
38427;SDS011;24211;49.980;19.776;2023-03-29T00:40:06;18.48;;;6.82;;
38427;SDS011;24211;49.980;19.776;2023-03-29T00:42:36;19.02;;;7.30;;
38427;SDS011;24211;49.980;19.776;2023-03-29T00:45:06;17.80;;;7.40;;
38427;SDS011;24211;49.980;19.776;2023-03-29T00:50:40;18.33;;;7.07;;
38427;SDS011;24211;49.980;19.776;2023-03-29T00:53:26;20.45;;;6.88;;
38427;SDS011;24211;49.980;19.776;2023-03-29T00:56:02;18.42;;;6.53;;
38427;SDS011;24211;49.980;19.776;2023-03-29T00:58:40;20.17;;;6.72;;
38427;SDS011;24211;49.980;19.776;2023-03-29T01:01:22;18.83;;;6.63;;
38427;SDS011;24211;49.980;19.776;2023-03-29T01:04:01;18.83;;;6.50;;
38427;SDS011;24211;49.980;19.776;2023-03-29T01:06:48;15.80;;;6.32;;
38427;SDS011;24211;49.980;19.776;2023-03-29T01:09:32;16.45;;;6.25;;
38427;SDS011;24211;49.980;19.776;2023-03-29T01:12:07;16.58;;;6.78;;
38427;SDS011;24211;49.980;19.776;2023-03-29T01:14:50;19.35;;;6.95;;
38427;SDS011;24211;49.980;19.776;2023-03-29T01:17:24;16.83;;;5.47;;
38427;SDS011;24211;49.980;19.776;2023-03-29T01:20:10;16.02;;;6.20;;
38427;SDS011;24211;49.980;19.776;2023-03-29T01:29:05;17.70;;;6.57;;
38427;SDS011;24211;49.980;19.776;2023-03-29T01:32:16;18.30;;;6.60;;
38427;SDS011;24211;49.980;19.776;2023-03-29T01:34:55;17.65;;;5.80;;
38427;SDS011;24211;49.980;19.776;2023-03-29T01:37:57;17.63;;;6.63;;
38427;SDS011;24211;49.980;19.776;2023-03-29T01:40:45;18.88;;;6.50;;
38427;SDS011;24211;49.980;19.776;2023-03-29T01:48:55;16.23;;;5.88;;
38427;SDS011;24211;49.980;19.776;2023-03-29T01:51:41;16.50;;;5.85;;
38427;SDS011;24211;49.980;19.776;2023-03-29T01:54:18;15.98;;;5.88;;
38427;SDS011;24211;49.980;19.776;2023-03-29T01:56:55;12.57;;;5.07;;
38427;SDS011;24211;49.980;19.776;2023-03-29T01:59:26;13.68;;;5.30;;
38427;SDS011;24211;49.980;19.776;2023-03-29T02:01:59;14.10;;;5.30;;
38427;SDS011;24211;49.980;19.776;2023-03-29T02:04:35;15.38;;;5.30;;
38427;SDS011;24211;49.980;19.776;2023-03-29T02:07:07;13.18;;;5.25;;
38427;SDS011;24211;49.980;19.776;2023-03-29T02:09:36;15.30;;;5.97;;
38427;SDS011;24211;49.980;19.776;2023-03-29T02:12:06;13.50;;;5.07;;
38427;SDS011;24211;49.980;19.776;2023-03-29T02:14:36;12.25;;;5.22;;
38427;SDS011;24211;49.980;19.776;2023-03-29T02:17:24;15.95;;;5.20;;
38427;SDS011;24211;49.980;19.776;2023-03-29T02:19:54;15.88;;;5.13;;
38427;SDS011;24211;49.980;19.776;2023-03-29T02:22:42;11.90;;;4.60;;
38427;SDS011;24211;49.980;19.776;2023-03-29T02:25:27;12.70;;;4.68;;
38427;SDS011;24211;49.980;19.776;2023-03-29T02:27:56;15.68;;;4.70;;
38427;SDS011;24211;49.980;19.776;2023-03-29T02:30:23;11.32;;;4.80;;
38427;SDS011;24211;49.980;19.776;2023-03-29T02:33:15;12.73;;;4.50;;
38427;SDS011;24211;49.980;19.776;2023-03-29T02:35:52;13.02;;;4.68;;
38427;SDS011;24211;49.980;19.776;2023-03-29T02:38:44;13.30;;;4.75;;
38427;SDS011;24211;49.980;19.776;2023-03-29T02:41:13;11.80;;;4.53;;
38427;SDS011;24211;49.980;19.776;2023-03-29T02:43:43;13.50;;;4.95;;
38427;SDS011;24211;49.980;19.776;2023-03-29T02:46:14;15.43;;;4.88;;
38427;SDS011;24211;49.980;19.776;2023-03-29T02:48:44;14.23;;;5.13;;
38427;SDS011;24211;49.980;19.776;2023-03-29T02:51:21;12.40;;;5.05;;
38427;SDS011;24211;49.980;19.776;2023-03-29T02:54:01;14.32;;;5.35;;
38427;SDS011;24211;49.980;19.776;2023-03-29T02:56:47;12.30;;;4.88;;
38427;SDS011;24211;49.980;19.776;2023-03-29T02:59:22;14.32;;;5.55;;
38427;SDS011;24211;49.980;19.776;2023-03-29T03:01:50;11.85;;;4.75;;
38427;SDS011;24211;49.980;19.776;2023-03-29T03:04:19;15.70;;;5.65;;
38427;SDS011;24211;49.980;19.776;2023-03-29T03:06:47;11.77;;;4.88;;
38427;SDS011;24211;49.980;19.776;2023-03-29T03:09:16;12.40;;;5.45;;
38427;SDS011;24211;49.980;19.776;2023-03-29T03:11:46;13.57;;;5.32;;
38427;SDS011;24211;49.980;19.776;2023-03-29T03:14:13;15.38;;;4.97;;
38427;SDS011;24211;49.980;19.776;2023-03-29T03:16:42;14.23;;;5.45;;
38427;SDS011;24211;49.980;19.776;2023-03-29T03:19:10;14.52;;;5.38;;
38427;SDS011;24211;49.980;19.776;2023-03-29T03:21:37;12.05;;;4.82;;
38427;SDS011;24211;49.980;19.776;2023-03-29T03:24:05;14.07;;;5.15;;
38427;SDS011;24211;49.980;19.776;2023-03-29T03:26:33;11.88;;;4.80;;
38427;SDS011;24211;49.980;19.776;2023-03-29T03:29:02;13.35;;;4.90;;
38427;SDS011;24211;49.980;19.776;2023-03-29T03:31:54;13.50;;;5.13;;
38427;SDS011;24211;49.980;19.776;2023-03-29T03:34:41;14.73;;;5.00;;
38427;SDS011;24211;49.980;19.776;2023-03-29T03:37:10;17.42;;;5.47;;
38427;SDS011;24211;49.980;19.776;2023-03-29T03:39:38;14.07;;;5.60;;
38427;SDS011;24211;49.980;19.776;2023-03-29T03:42:07;14.77;;;5.25;;
38427;SDS011;24211;49.980;19.776;2023-03-29T03:44:40;14.88;;;5.25;;
38427;SDS011;24211;49.980;19.776;2023-03-29T03:47:33;12.13;;;4.82;;
38427;SDS011;24211;49.980;19.776;2023-03-29T03:50:17;11.43;;;4.72;;
38427;SDS011;24211;49.980;19.776;2023-03-29T03:52:45;13.13;;;4.97;;
38427;SDS011;24211;49.980;19.776;2023-03-29T03:55:13;12.73;;;5.28;;
38427;SDS011;24211;49.980;19.776;2023-03-29T03:57:45;12.23;;;4.80;;
38427;SDS011;24211;49.980;19.776;2023-03-29T04:00:16;11.68;;;4.70;;
38427;SDS011;24211;49.980;19.776;2023-03-29T04:03:13;14.85;;;5.30;;
38427;SDS011;24211;49.980;19.776;2023-03-29T04:05:44;11.17;;;4.63;;
38427;SDS011;24211;49.980;19.776;2023-03-29T04:08:14;12.97;;;4.60;;
38427;SDS011;24211;49.980;19.776;2023-03-29T04:11:04;12.57;;;4.60;;
38427;SDS011;24211;49.980;19.776;2023-03-29T04:13:36;14.32;;;5.25;;
38427;SDS011;24211;49.980;19.776;2023-03-29T04:16:22;24.50;;;8.10;;
38427;SDS011;24211;49.980;19.776;2023-03-29T04:18:50;35.78;;;9.65;;
38427;SDS011;24211;49.980;19.776;2023-03-29T04:21:20;41.50;;;10.80;;
38427;SDS011;24211;49.980;19.776;2023-03-29T04:23:47;41.60;;;11.40;;
38427;SDS011;24211;49.980;19.776;2023-03-29T04:26:16;42.88;;;12.82;;
38427;SDS011;24211;49.980;19.776;2023-03-29T04:28:49;45.30;;;12.13;;
38427;SDS011;24211;49.980;19.776;2023-03-29T04:31:28;45.03;;;13.57;;
38427;SDS011;24211;49.980;19.776;2023-03-29T04:34:17;43.30;;;12.45;;
38427;SDS011;24211;49.980;19.776;2023-03-29T04:36:47;52.05;;;13.50;;
38427;SDS011;24211;49.980;19.776;2023-03-29T04:41:53;38.90;;;12.00;;
38427;SDS011;24211;49.980;19.776;2023-03-29T04:44:24;45.42;;;12.52;;
38427;SDS011;24211;49.980;19.776;2023-03-29T04:46:54;40.17;;;12.23;;
38427;SDS011;24211;49.980;19.776;2023-03-29T04:49:51;34.22;;;11.40;;
38427;SDS011;24211;49.980;19.776;2023-03-29T04:52:30;36.20;;;11.15;;
38427;SDS011;24211;49.980;19.776;2023-03-29T04:55:00;31.85;;;11.05;;
38427;SDS011;24211;49.980;19.776;2023-03-29T04:57:40;36.90;;;11.50;;
38427;SDS011;24211;49.980;19.776;2023-03-29T05:00:18;42.88;;;11.80;;
38427;SDS011;24211;49.980;19.776;2023-03-29T05:03:02;37.50;;;11.82;;
38427;SDS011;24211;49.980;19.776;2023-03-29T05:05:33;40.15;;;11.45;;
38427;SDS011;24211;49.980;19.776;2023-03-29T05:08:02;32.83;;;10.75;;
38427;SDS011;24211;49.980;19.776;2023-03-29T05:10:40;30.27;;;10.23;;
38427;SDS011;24211;49.980;19.776;2023-03-29T05:13:10;34.95;;;10.52;;
38427;SDS011;24211;49.980;19.776;2023-03-29T05:15:40;34.30;;;10.55;;
38427;SDS011;24211;49.980;19.776;2023-03-29T05:18:09;35.25;;;11.30;;
38427;SDS011;24211;49.980;19.776;2023-03-29T05:20:36;34.83;;;11.27;;
38427;SDS011;24211;49.980;19.776;2023-03-29T05:23:06;40.13;;;12.00;;
38427;SDS011;24211;49.980;19.776;2023-03-29T05:25:57;43.50;;;13.52;;
38427;SDS011;24211;49.980;19.776;2023-03-29T05:28:25;43.05;;;13.73;;
38427;SDS011;24211;49.980;19.776;2023-03-29T05:30:59;37.42;;;12.30;;
38427;SDS011;24211;49.980;19.776;2023-03-29T05:33:32;34.65;;;11.30;;
38427;SDS011;24211;49.980;19.776;2023-03-29T05:36:09;34.83;;;11.77;;
38427;SDS011;24211;49.980;19.776;2023-03-29T05:38:44;34.30;;;10.85;;
38427;SDS011;24211;49.980;19.776;2023-03-29T05:41:13;29.80;;;10.20;;
38427;SDS011;24211;49.980;19.776;2023-03-29T05:44:14;30.85;;;10.07;;
38427;SDS011;24211;49.980;19.776;2023-03-29T05:46:47;29.88;;;9.85;;
38427;SDS011;24211;49.980;19.776;2023-03-29T05:49:16;28.52;;;9.35;;
38427;SDS011;24211;49.980;19.776;2023-03-29T05:51:56;27.50;;;8.27;;
38427;SDS011;24211;49.980;19.776;2023-03-29T05:54:26;21.42;;;7.60;;
38427;SDS011;24211;49.980;19.776;2023-03-29T05:56:54;23.35;;;8.32;;
38427;SDS011;24211;49.980;19.776;2023-03-29T05:59:22;20.50;;;7.30;;
38427;SDS011;24211;49.980;19.776;2023-03-29T06:01:50;21.25;;;7.57;;
38427;SDS011;24211;49.980;19.776;2023-03-29T06:04:20;19.63;;;6.55;;
38427;SDS011;24211;49.980;19.776;2023-03-29T06:06:57;16.25;;;6.78;;
38427;SDS011;24211;49.980;19.776;2023-03-29T06:09:28;20.85;;;7.00;;
38427;SDS011;24211;49.980;19.776;2023-03-29T06:12:00;17.70;;;6.55;;
38427;SDS011;24211;49.980;19.776;2023-03-29T06:14:37;16.02;;;6.45;;
38427;SDS011;24211;49.980;19.776;2023-03-29T06:17:18;19.80;;;7.25;;
38427;SDS011;24211;49.980;19.776;2023-03-29T06:19:46;19.27;;;7.97;;
38427;SDS011;24211;49.980;19.776;2023-03-29T06:22:15;21.63;;;7.28;;
38427;SDS011;24211;49.980;19.776;2023-03-29T06:24:44;23.77;;;9.45;;
38427;SDS011;24211;49.980;19.776;2023-03-29T06:27:21;26.85;;;10.10;;
38427;SDS011;24211;49.980;19.776;2023-03-29T06:29:50;33.53;;;13.25;;
38427;SDS011;24211;49.980;19.776;2023-03-29T06:32:17;33.05;;;13.25;;
38427;SDS011;24211;49.980;19.776;2023-03-29T06:34:54;29.55;;;12.70;;
38427;SDS011;24211;49.980;19.776;2023-03-29T06:37:34;30.30;;;12.63;;
38427;SDS011;24211;49.980;19.776;2023-03-29T06:40:17;29.52;;;12.65;;
38427;SDS011;24211;49.980;19.776;2023-03-29T06:42:47;27.80;;;12.13;;
38427;SDS011;24211;49.980;19.776;2023-03-29T06:45:35;26.80;;;11.85;;
38427;SDS011;24211;49.980;19.776;2023-03-29T06:48:15;27.85;;;12.40;;
38427;SDS011;24211;49.980;19.776;2023-03-29T06:50:44;28.95;;;11.98;;
38427;SDS011;24211;49.980;19.776;2023-03-29T06:53:15;25.80;;;11.43;;
38427;SDS011;24211;49.980;19.776;2023-03-29T06:55:56;26.73;;;11.13;;
38427;SDS011;24211;49.980;19.776;2023-03-29T07:01:58;20.80;;;8.80;;
38427;SDS011;24211;49.980;19.776;2023-03-29T07:04:50;16.63;;;8.07;;
38427;SDS011;24211;49.980;19.776;2023-03-29T07:07:33;18.13;;;8.00;;
38427;SDS011;24211;49.980;19.776;2023-03-29T07:26:50;11.90;;;5.82;;
38427;SDS011;24211;49.980;19.776;2023-03-29T07:29:31;15.73;;;5.95;;
38427;SDS011;24211;49.980;19.776;2023-03-29T07:31:59;14.77;;;5.90;;
38427;SDS011;24211;49.980;19.776;2023-03-29T07:34:42;12.68;;;5.55;;
38427;SDS011;24211;49.980;19.776;2023-03-29T07:37:26;13.30;;;5.80;;
38427;SDS011;24211;49.980;19.776;2023-03-29T07:39:57;12.98;;;5.78;;
38427;SDS011;24211;49.980;19.776;2023-03-29T07:42:56;14.63;;;6.25;;
38427;SDS011;24211;49.980;19.776;2023-03-29T07:45:29;15.90;;;6.57;;
38427;SDS011;24211;49.980;19.776;2023-03-29T07:48:01;13.35;;;6.40;;
38427;SDS011;24211;49.980;19.776;2023-03-29T07:50:51;17.83;;;6.60;;
38427;SDS011;24211;49.980;19.776;2023-03-29T07:53:24;13.90;;;6.13;;
38427;SDS011;24211;49.980;19.776;2023-03-29T07:55:55;14.88;;;6.45;;
38427;SDS011;24211;49.980;19.776;2023-03-29T07:58:43;14.00;;;5.97;;
38427;SDS011;24211;49.980;19.776;2023-03-29T08:01:14;11.60;;;5.35;;
38427;SDS011;24211;49.980;19.776;2023-03-29T08:04:15;13.48;;;5.35;;
38427;SDS011;24211;49.980;19.776;2023-03-29T08:07:02;12.45;;;4.75;;
38427;SDS011;24211;49.980;19.776;2023-03-29T08:09:48;12.27;;;4.50;;
38427;SDS011;24211;49.980;19.776;2023-03-29T08:12:17;11.98;;;4.38;;
38427;SDS011;24211;49.980;19.776;2023-03-29T08:14:44;12.23;;;3.97;;
38427;SDS011;24211;49.980;19.776;2023-03-29T08:17:18;11.68;;;3.72;;
38427;SDS011;24211;49.980;19.776;2023-03-29T08:19:48;8.00;;;3.50;;
38427;SDS011;24211;49.980;19.776;2023-03-29T08:25:07;7.60;;;3.58;;
38427;SDS011;24211;49.980;19.776;2023-03-29T08:27:40;9.93;;;3.58;;
38427;SDS011;24211;49.980;19.776;2023-03-29T08:30:10;11.90;;;3.85;;
38427;SDS011;24211;49.980;19.776;2023-03-29T08:32:39;8.25;;;3.60;;
38427;SDS011;24211;49.980;19.776;2023-03-29T08:35:08;7.60;;;3.17;;
38427;SDS011;24211;49.980;19.776;2023-03-29T08:37:43;10.07;;;3.42;;
38427;SDS011;24211;49.980;19.776;2023-03-29T08:40:23;9.00;;;3.50;;
38427;SDS011;24211;49.980;19.776;2023-03-29T08:46:21;8.40;;;3.28;;
38427;SDS011;24211;49.980;19.776;2023-03-29T08:49:18;7.53;;;3.05;;
38427;SDS011;24211;49.980;19.776;2023-03-29T08:51:50;8.55;;;2.40;;
38427;SDS011;24211;49.980;19.776;2023-03-29T08:54:26;4.63;;;2.17;;
38427;SDS011;24211;49.980;19.776;2023-03-29T08:57:24;4.72;;;1.85;;
38427;SDS011;24211;49.980;19.776;2023-03-29T09:00:07;4.30;;;1.70;;
38427;SDS011;24211;49.980;19.776;2023-03-29T09:02:54;5.15;;;1.85;;
38427;SDS011;24211;49.980;19.776;2023-03-29T09:05:36;4.80;;;1.63;;
38427;SDS011;24211;49.980;19.776;2023-03-29T09:08:20;5.55;;;1.80;;
38427;SDS011;24211;49.980;19.776;2023-03-29T09:11:11;3.13;;;1.25;;
38427;SDS011;24211;49.980;19.776;2023-03-29T09:16:59;4.28;;;1.48;;
38427;SDS011;24211;49.980;19.776;2023-03-29T09:19:46;3.75;;;1.48;;
38427;SDS011;24211;49.980;19.776;2023-03-29T09:28:28;5.35;;;1.63;;
38427;SDS011;24211;49.980;19.776;2023-03-29T09:31:12;6.10;;;1.80;;
38427;SDS011;24211;49.980;19.776;2023-03-29T09:34:01;5.75;;;1.70;;
38427;SDS011;24211;49.980;19.776;2023-03-29T09:37:07;4.00;;;1.52;;
38427;SDS011;24211;49.980;19.776;2023-03-29T09:39:52;4.90;;;1.55;;
38427;SDS011;24211;49.980;19.776;2023-03-29T09:42:33;4.22;;;1.60;;
38427;SDS011;24211;49.980;19.776;2023-03-29T09:45:04;5.65;;;1.83;;
38427;SDS011;24211;49.980;19.776;2023-03-29T09:47:45;3.50;;;1.42;;
38427;SDS011;24211;49.980;19.776;2023-03-29T09:50:37;3.63;;;1.48;;
38427;SDS011;24211;49.980;19.776;2023-03-29T09:53:10;3.75;;;1.50;;
38427;SDS011;24211;49.980;19.776;2023-03-29T09:55:49;6.85;;;1.80;;
38427;SDS011;24211;49.980;19.776;2023-03-29T09:58:39;5.65;;;2.08;;
38427;SDS011;24211;49.980;19.776;2023-03-29T10:01:11;4.90;;;2.22;;
38427;SDS011;24211;49.980;19.776;2023-03-29T10:03:49;6.50;;;1.90;;
38427;SDS011;24211;49.980;19.776;2023-03-29T10:06:22;4.32;;;2.10;;
38427;SDS011;24211;49.980;19.776;2023-03-29T10:08:55;4.90;;;1.75;;
38427;SDS011;24211;49.980;19.776;2023-03-29T10:11:37;5.83;;;2.50;;
38427;SDS011;24211;49.980;19.776;2023-03-29T10:14:10;5.57;;;2.28;;
38427;SDS011;24211;49.980;19.776;2023-03-29T10:16:45;5.97;;;2.35;;
38427;SDS011;24211;49.980;19.776;2023-03-29T10:19:14;4.45;;;2.20;;
38427;SDS011;24211;49.980;19.776;2023-03-29T10:22:02;3.80;;;1.85;;
38427;SDS011;24211;49.980;19.776;2023-03-29T10:24:39;4.00;;;1.95;;
38427;SDS011;24211;49.980;19.776;2023-03-29T10:27:19;5.43;;;2.10;;
38427;SDS011;24211;49.980;19.776;2023-03-29T10:29:53;4.85;;;2.05;;
38427;SDS011;24211;49.980;19.776;2023-03-29T10:32:30;6.25;;;2.28;;
38427;SDS011;24211;49.980;19.776;2023-03-29T10:35:08;5.75;;;2.00;;
38427;SDS011;24211;49.980;19.776;2023-03-29T10:37:42;5.93;;;2.00;;
38427;SDS011;24211;49.980;19.776;2023-03-29T10:40:31;5.20;;;2.03;;
38427;SDS011;24211;49.980;19.776;2023-03-29T10:46:04;5.20;;;1.90;;
38427;SDS011;24211;49.980;19.776;2023-03-29T10:48:39;4.32;;;1.50;;
38427;SDS011;24211;49.980;19.776;2023-03-29T10:51:23;5.93;;;2.00;;
38427;SDS011;24211;49.980;19.776;2023-03-29T10:53:56;4.22;;;1.88;;
38427;SDS011;24211;49.980;19.776;2023-03-29T10:56:38;5.93;;;2.17;;
38427;SDS011;24211;49.980;19.776;2023-03-29T10:59:26;5.05;;;1.90;;
38427;SDS011;24211;49.980;19.776;2023-03-29T11:04:49;6.00;;;1.88;;
38427;SDS011;24211;49.980;19.776;2023-03-29T11:13:53;7.43;;;3.45;;
38427;SDS011;24211;49.980;19.776;2023-03-29T11:16:47;5.65;;;2.72;;
38427;SDS011;24211;49.980;19.776;2023-03-29T11:20:00;9.15;;;4.28;;
38427;SDS011;24211;49.980;19.776;2023-03-29T11:28:16;5.13;;;2.60;;
38427;SDS011;24211;49.980;19.776;2023-03-29T11:42:51;8.70;;;3.05;;
38427;SDS011;24211;49.980;19.776;2023-03-29T11:45:26;4.80;;;2.00;;
38427;SDS011;24211;49.980;19.776;2023-03-29T11:48:01;4.13;;;1.90;;
38427;SDS011;24211;49.980;19.776;2023-03-29T11:50:42;5.70;;;1.88;;
38427;SDS011;24211;49.980;19.776;2023-03-29T11:53:23;3.35;;;1.40;;
38427;SDS011;24211;49.980;19.776;2023-03-29T11:56:11;4.30;;;1.70;;
38427;SDS011;24211;49.980;19.776;2023-03-29T11:58:50;4.32;;;1.70;;
38427;SDS011;24211;49.980;19.776;2023-03-29T12:01:42;5.65;;;1.80;;
38427;SDS011;24211;49.980;19.776;2023-03-29T12:04:28;4.45;;;2.00;;
38427;SDS011;24211;49.980;19.776;2023-03-29T12:07:11;3.63;;;1.83;;
38427;SDS011;24211;49.980;19.776;2023-03-29T12:10:07;5.05;;;1.88;;
38427;SDS011;24211;49.980;19.776;2023-03-29T12:15:28;5.50;;;1.90;;
38427;SDS011;24211;49.980;19.776;2023-03-29T12:18:09;5.57;;;2.15;;
38427;SDS011;24211;49.980;19.776;2023-03-29T12:20:57;3.90;;;1.67;;
38427;SDS011;24211;49.980;19.776;2023-03-29T12:23:33;3.55;;;1.50;;
38427;SDS011;24211;49.980;19.776;2023-03-29T12:41:00;6.00;;;3.20;;
38427;SDS011;24211;49.980;19.776;2023-03-29T12:44:16;6.85;;;2.78;;
38427;SDS011;24211;49.980;19.776;2023-03-29T12:47:16;5.28;;;2.53;;
38427;SDS011;24211;49.980;19.776;2023-03-29T12:49:58;4.95;;;2.20;;
38427;SDS011;24211;49.980;19.776;2023-03-29T12:52:35;12.05;;;7.15;;
38427;SDS011;24211;49.980;19.776;2023-03-29T12:55:21;7.32;;;3.72;;
38427;SDS011;24211;49.980;19.776;2023-03-29T12:58:03;4.10;;;2.08;;
38427;SDS011;24211;49.980;19.776;2023-03-29T13:00:54;5.03;;;2.05;;
38427;SDS011;24211;49.980;19.776;2023-03-29T13:06:07;5.90;;;2.90;;
38427;SDS011;24211;49.980;19.776;2023-03-29T13:08:41;4.70;;;2.35;;
38427;SDS011;24211;49.980;19.776;2023-03-29T13:11:11;5.03;;;2.22;;
38427;SDS011;24211;49.980;19.776;2023-03-29T13:14:15;4.55;;;1.90;;
38427;SDS011;24211;49.980;19.776;2023-03-29T13:16:49;4.25;;;1.63;;
38427;SDS011;24211;49.980;19.776;2023-03-29T13:19:21;6.78;;;2.40;;
38427;SDS011;24211;49.980;19.776;2023-03-29T13:28:00;6.07;;;2.40;;
38427;SDS011;24211;49.980;19.776;2023-03-29T13:30:58;4.47;;;2.22;;
38427;SDS011;24211;49.980;19.776;2023-03-29T13:36:52;6.65;;;2.55;;
38427;SDS011;24211;49.980;19.776;2023-03-29T13:40:22;5.68;;;2.20;;
38427;SDS011;24211;49.980;19.776;2023-03-29T13:43:09;4.70;;;1.70;;
38427;SDS011;24211;49.980;19.776;2023-03-29T13:46:05;7.45;;;1.90;;
38427;SDS011;24211;49.980;19.776;2023-03-29T13:48:56;3.97;;;1.80;;
38427;SDS011;24211;49.980;19.776;2023-03-29T13:51:33;4.60;;;1.80;;
38427;SDS011;24211;49.980;19.776;2023-03-29T13:57:08;3.80;;;1.48;;
38427;SDS011;24211;49.980;19.776;2023-03-29T14:05:14;4.18;;;1.75;;
38427;SDS011;24211;49.980;19.776;2023-03-29T14:07:49;3.55;;;1.60;;
38427;SDS011;24211;49.980;19.776;2023-03-29T14:10:22;4.57;;;1.50;;
38427;SDS011;24211;49.980;19.776;2023-03-29T14:12:57;5.50;;;1.77;;
38427;SDS011;24211;49.980;19.776;2023-03-29T14:15:36;4.20;;;1.70;;
38427;SDS011;24211;49.980;19.776;2023-03-29T14:18:14;4.55;;;1.85;;
38427;SDS011;24211;49.980;19.776;2023-03-29T14:20:48;3.80;;;1.48;;
38427;SDS011;24211;49.980;19.776;2023-03-29T14:23:22;4.93;;;1.70;;
38427;SDS011;24211;49.980;19.776;2023-03-29T14:25:52;5.80;;;2.03;;
38427;SDS011;24211;49.980;19.776;2023-03-29T14:28:25;3.85;;;1.50;;
38427;SDS011;24211;49.980;19.776;2023-03-29T14:30:55;4.57;;;1.50;;
38427;SDS011;24211;49.980;19.776;2023-03-29T14:33:29;4.18;;;1.75;;
38427;SDS011;24211;49.980;19.776;2023-03-29T14:36:01;4.15;;;1.63;;
38427;SDS011;24211;49.980;19.776;2023-03-29T14:38:30;4.90;;;2.00;;
38427;SDS011;24211;49.980;19.776;2023-03-29T14:40:59;4.75;;;1.92;;
38427;SDS011;24211;49.980;19.776;2023-03-29T14:43:29;4.22;;;1.92;;
38427;SDS011;24211;49.980;19.776;2023-03-29T14:45:58;6.65;;;1.92;;
38427;SDS011;24211;49.980;19.776;2023-03-29T14:48:32;5.53;;;1.80;;
38427;SDS011;24211;49.980;19.776;2023-03-29T14:51:02;4.45;;;1.70;;
38427;SDS011;24211;49.980;19.776;2023-03-29T14:53:31;3.10;;;1.50;;
38427;SDS011;24211;49.980;19.776;2023-03-29T14:56:03;5.80;;;2.00;;
38427;SDS011;24211;49.980;19.776;2023-03-29T14:58:33;4.18;;;1.80;;
38427;SDS011;24211;49.980;19.776;2023-03-29T15:01:04;5.43;;;1.73;;
38427;SDS011;24211;49.980;19.776;2023-03-29T15:03:45;4.63;;;1.77;;
38427;SDS011;24211;49.980;19.776;2023-03-29T15:06:23;3.75;;;1.67;;
38427;SDS011;24211;49.980;19.776;2023-03-29T15:08:54;4.28;;;1.65;;
38427;SDS011;24211;49.980;19.776;2023-03-29T15:11:33;4.15;;;1.40;;
38427;SDS011;24211;49.980;19.776;2023-03-29T15:14:02;3.95;;;1.30;;
38427;SDS011;24211;49.980;19.776;2023-03-29T15:16:38;4.40;;;1.58;;
38427;SDS011;24211;49.980;19.776;2023-03-29T15:19:11;3.90;;;1.30;;
38427;SDS011;24211;49.980;19.776;2023-03-29T15:21:44;3.60;;;1.60;;
38427;SDS011;24211;49.980;19.776;2023-03-29T15:26:59;3.80;;;1.42;;
38427;SDS011;24211;49.980;19.776;2023-03-29T15:29:41;3.80;;;1.52;;
38427;SDS011;24211;49.980;19.776;2023-03-29T15:32:22;4.40;;;1.50;;
38427;SDS011;24211;49.980;19.776;2023-03-29T15:35:00;4.20;;;1.70;;
38427;SDS011;24211;49.980;19.776;2023-03-29T15:37:33;4.05;;;1.48;;
38427;SDS011;24211;49.980;19.776;2023-03-29T15:40:02;4.72;;;1.67;;
38427;SDS011;24211;49.980;19.776;2023-03-29T15:42:35;5.65;;;1.65;;
38427;SDS011;24211;49.980;19.776;2023-03-29T15:45:03;4.10;;;1.80;;
38427;SDS011;24211;49.980;19.776;2023-03-29T15:47:32;4.65;;;2.00;;
38427;SDS011;24211;49.980;19.776;2023-03-29T15:50:00;5.07;;;2.05;;
38427;SDS011;24211;49.980;19.776;2023-03-29T15:52:28;5.22;;;2.10;;
38427;SDS011;24211;49.980;19.776;2023-03-29T15:54:55;5.65;;;2.33;;
38427;SDS011;24211;49.980;19.776;2023-03-29T15:57:23;7.13;;;2.05;;
38427;SDS011;24211;49.980;19.776;2023-03-29T15:59:51;4.97;;;2.00;;
38427;SDS011;24211;49.980;19.776;2023-03-29T16:02:19;5.15;;;2.13;;
38427;SDS011;24211;49.980;19.776;2023-03-29T16:04:50;5.43;;;2.20;;
38427;SDS011;24211;49.980;19.776;2023-03-29T16:07:18;4.63;;;2.00;;
38427;SDS011;24211;49.980;19.776;2023-03-29T16:09:46;5.50;;;1.80;;
38427;SDS011;24211;49.980;19.776;2023-03-29T16:12:14;6.22;;;2.00;;
38427;SDS011;24211;49.980;19.776;2023-03-29T16:14:41;5.22;;;1.80;;
38427;SDS011;24211;49.980;19.776;2023-03-29T16:17:09;5.07;;;2.28;;
38427;SDS011;24211;49.980;19.776;2023-03-29T16:19:38;5.53;;;2.15;;
38427;SDS011;24211;49.980;19.776;2023-03-29T16:22:06;6.00;;;2.10;;
38427;SDS011;24211;49.980;19.776;2023-03-29T16:24:34;4.80;;;2.22;;
38427;SDS011;24211;49.980;19.776;2023-03-29T16:27:02;7.68;;;2.50;;
38427;SDS011;24211;49.980;19.776;2023-03-29T16:29:30;5.22;;;2.40;;
38427;SDS011;24211;49.980;19.776;2023-03-29T16:31:58;4.43;;;2.30;;
38427;SDS011;24211;49.980;19.776;2023-03-29T16:34:26;6.15;;;2.20;;
38427;SDS011;24211;49.980;19.776;2023-03-29T16:36:54;5.65;;;2.17;;
38427;SDS011;24211;49.980;19.776;2023-03-29T16:39:22;4.80;;;2.00;;
38427;SDS011;24211;49.980;19.776;2023-03-29T16:41:50;6.05;;;2.25;;
38427;SDS011;24211;49.980;19.776;2023-03-29T16:44:18;4.18;;;1.90;;
38427;SDS011;24211;49.980;19.776;2023-03-29T16:46:50;4.70;;;2.17;;
38427;SDS011;24211;49.980;19.776;2023-03-29T16:49:20;6.63;;;2.10;;
38427;SDS011;24211;49.980;19.776;2023-03-29T16:51:48;5.90;;;2.05;;
38427;SDS011;24211;49.980;19.776;2023-03-29T16:54:16;5.43;;;2.30;;
38427;SDS011;24211;49.980;19.776;2023-03-29T16:56:44;7.38;;;2.70;;
38427;SDS011;24211;49.980;19.776;2023-03-29T16:59:12;11.23;;;4.25;;
38427;SDS011;24211;49.980;19.776;2023-03-29T17:01:41;13.77;;;5.45;;
38427;SDS011;24211;49.980;19.776;2023-03-29T17:04:09;17.95;;;6.50;;
38427;SDS011;24211;49.980;19.776;2023-03-29T17:06:45;16.98;;;6.88;;
38427;SDS011;24211;49.980;19.776;2023-03-29T17:09:13;18.48;;;6.78;;
38427;SDS011;24211;49.980;19.776;2023-03-29T17:11:43;17.23;;;6.68;;
38427;SDS011;24211;49.980;19.776;2023-03-29T17:14:11;17.83;;;6.22;;
38427;SDS011;24211;49.980;19.776;2023-03-29T17:16:40;17.40;;;6.40;;
38427;SDS011;24211;49.980;19.776;2023-03-29T17:19:07;16.65;;;6.10;;
38427;SDS011;24211;49.980;19.776;2023-03-29T17:21:36;14.60;;;5.97;;